sensor_id;sensor_type;location;lat;lon;timestamp;P1;durP1;ratioP1;P2;durP2;ratioP2
28629;SDS011;15817;42.130;24.762;2023-05-13T00:01:40;3.42;;;1.77;;
28629;SDS011;15817;42.130;24.762;2023-05-13T00:04:09;1.88;;;1.40;;
28629;SDS011;15817;42.130;24.762;2023-05-13T00:06:35;4.60;;;1.85;;
28629;SDS011;15817;42.130;24.762;2023-05-13T00:09:01;4.25;;;1.70;;
28629;SDS011;15817;42.130;24.762;2023-05-13T00:11:30;3.75;;;1.80;;
28629;SDS011;15817;42.130;24.762;2023-05-13T00:13:56;6.45;;;1.60;;
28629;SDS011;15817;42.130;24.762;2023-05-13T00:16:33;5.60;;;2.05;;
28629;SDS011;15817;42.130;24.762;2023-05-13T00:18:59;4.10;;;2.00;;
28629;SDS011;15817;42.130;24.762;2023-05-13T00:21:25;4.05;;;1.70;;
28629;SDS011;15817;42.130;24.762;2023-05-13T00:23:54;2.42;;;1.50;;
28629;SDS011;15817;42.130;24.762;2023-05-13T00:26:20;2.83;;;1.58;;
28629;SDS011;15817;42.130;24.762;2023-05-13T00:28:48;2.92;;;2.20;;
28629;SDS011;15817;42.130;24.762;2023-05-13T00:31:21;9.43;;;2.13;;
28629;SDS011;15817;42.130;24.762;2023-05-13T00:33:53;5.20;;;1.75;;
28629;SDS011;15817;42.130;24.762;2023-05-13T00:36:19;2.97;;;1.73;;
28629;SDS011;15817;42.130;24.762;2023-05-13T00:38:44;5.55;;;2.00;;
28629;SDS011;15817;42.130;24.762;2023-05-13T00:41:10;3.45;;;2.08;;
28629;SDS011;15817;42.130;24.762;2023-05-13T00:43:37;5.70;;;2.08;;
28629;SDS011;15817;42.130;24.762;2023-05-13T00:46:02;7.07;;;2.13;;
28629;SDS011;15817;42.130;24.762;2023-05-13T00:48:29;9.38;;;2.47;;
28629;SDS011;15817;42.130;24.762;2023-05-13T00:50:55;6.10;;;2.20;;
28629;SDS011;15817;42.130;24.762;2023-05-13T00:53:21;3.75;;;1.90;;
28629;SDS011;15817;42.130;24.762;2023-05-13T00:55:47;3.30;;;2.00;;
28629;SDS011;15817;42.130;24.762;2023-05-13T00:58:13;5.97;;;2.00;;
28629;SDS011;15817;42.130;24.762;2023-05-13T01:01:07;5.57;;;1.80;;
28629;SDS011;15817;42.130;24.762;2023-05-13T01:03:45;3.85;;;1.85;;
28629;SDS011;15817;42.130;24.762;2023-05-13T01:06:25;4.43;;;2.40;;
28629;SDS011;15817;42.130;24.762;2023-05-13T01:09:54;2.75;;;2.00;;
28629;SDS011;15817;42.130;24.762;2023-05-13T01:12:06;4.32;;;2.13;;
28629;SDS011;15817;42.130;24.762;2023-05-13T01:14:48;5.22;;;2.35;;
28629;SDS011;15817;42.130;24.762;2023-05-13T01:17:19;3.42;;;2.15;;
28629;SDS011;15817;42.130;24.762;2023-05-13T01:19:53;3.85;;;2.15;;
28629;SDS011;15817;42.130;24.762;2023-05-13T01:22:20;7.10;;;2.33;;
28629;SDS011;15817;42.130;24.762;2023-05-13T01:24:46;5.03;;;2.00;;
28629;SDS011;15817;42.130;24.762;2023-05-13T01:27:12;7.57;;;2.33;;
28629;SDS011;15817;42.130;24.762;2023-05-13T01:29:38;6.20;;;2.10;;
28629;SDS011;15817;42.130;24.762;2023-05-13T01:32:06;6.03;;;2.33;;
28629;SDS011;15817;42.130;24.762;2023-05-13T01:34:33;6.35;;;2.42;;
28629;SDS011;15817;42.130;24.762;2023-05-13T01:37:01;5.55;;;2.10;;
28629;SDS011;15817;42.130;24.762;2023-05-13T01:39:27;4.00;;;2.30;;
28629;SDS011;15817;42.130;24.762;2023-05-13T01:41:58;8.27;;;2.40;;
28629;SDS011;15817;42.130;24.762;2023-05-13T01:44:24;3.65;;;1.80;;
28629;SDS011;15817;42.130;24.762;2023-05-13T01:46:50;6.32;;;2.67;;
28629;SDS011;15817;42.130;24.762;2023-05-13T01:49:17;4.75;;;2.38;;
28629;SDS011;15817;42.130;24.762;2023-05-13T01:51:46;10.40;;;3.05;;
28629;SDS011;15817;42.130;24.762;2023-05-13T01:54:11;8.38;;;2.40;;
28629;SDS011;15817;42.130;24.762;2023-05-13T01:56:42;4.80;;;2.38;;
28629;SDS011;15817;42.130;24.762;2023-05-13T01:59:09;4.72;;;2.13;;
28629;SDS011;15817;42.130;24.762;2023-05-13T02:01:36;7.25;;;2.42;;
28629;SDS011;15817;42.130;24.762;2023-05-13T02:04:01;5.90;;;2.30;;
28629;SDS011;15817;42.130;24.762;2023-05-13T02:06:29;10.98;;;2.65;;
28629;SDS011;15817;42.130;24.762;2023-05-13T02:08:55;6.28;;;2.30;;
28629;SDS011;15817;42.130;24.762;2023-05-13T02:11:21;6.50;;;2.80;;
28629;SDS011;15817;42.130;24.762;2023-05-13T02:13:47;5.13;;;2.13;;
28629;SDS011;15817;42.130;24.762;2023-05-13T02:16:13;8.68;;;2.50;;
28629;SDS011;15817;42.130;24.762;2023-05-13T02:18:41;7.35;;;2.60;;
28629;SDS011;15817;42.130;24.762;2023-05-13T02:21:06;5.00;;;2.55;;
28629;SDS011;15817;42.130;24.762;2023-05-13T02:23:32;6.18;;;2.30;;
28629;SDS011;15817;42.130;24.762;2023-05-13T02:26:00;5.90;;;2.45;;
28629;SDS011;15817;42.130;24.762;2023-05-13T02:28:26;5.63;;;2.30;;
28629;SDS011;15817;42.130;24.762;2023-05-13T02:30:51;4.15;;;2.33;;
28629;SDS011;15817;42.130;24.762;2023-05-13T02:33:17;6.85;;;2.15;;
28629;SDS011;15817;42.130;24.762;2023-05-13T02:35:43;4.65;;;2.13;;
28629;SDS011;15817;42.130;24.762;2023-05-13T02:38:09;3.92;;;2.28;;
28629;SDS011;15817;42.130;24.762;2023-05-13T02:40:35;7.35;;;2.40;;
28629;SDS011;15817;42.130;24.762;2023-05-13T02:43:02;4.80;;;2.50;;
28629;SDS011;15817;42.130;24.762;2023-05-13T02:45:41;6.88;;;2.33;;
28629;SDS011;15817;42.130;24.762;2023-05-13T02:48:07;5.43;;;2.30;;
28629;SDS011;15817;42.130;24.762;2023-05-13T02:50:35;4.88;;;2.70;;
28629;SDS011;15817;42.130;24.762;2023-05-13T02:53:04;5.85;;;2.22;;
28629;SDS011;15817;42.130;24.762;2023-05-13T02:55:35;7.15;;;2.20;;
28629;SDS011;15817;42.130;24.762;2023-05-13T02:58:01;4.75;;;2.25;;
28629;SDS011;15817;42.130;24.762;2023-05-13T03:00:29;7.93;;;3.08;;
28629;SDS011;15817;42.130;24.762;2023-05-13T03:02:55;5.25;;;2.55;;
28629;SDS011;15817;42.130;24.762;2023-05-13T03:05:21;4.32;;;2.67;;
28629;SDS011;15817;42.130;24.762;2023-05-13T03:07:47;10.75;;;2.70;;
28629;SDS011;15817;42.130;24.762;2023-05-13T03:10:13;8.48;;;2.58;;
28629;SDS011;15817;42.130;24.762;2023-05-13T03:12:39;10.38;;;3.45;;
28629;SDS011;15817;42.130;24.762;2023-05-13T03:15:08;6.70;;;2.50;;
28629;SDS011;15817;42.130;24.762;2023-05-13T03:17:35;7.13;;;2.60;;
28629;SDS011;15817;42.130;24.762;2023-05-13T03:20:01;6.15;;;2.90;;
28629;SDS011;15817;42.130;24.762;2023-05-13T03:22:27;4.20;;;2.70;;
28629;SDS011;15817;42.130;24.762;2023-05-13T03:24:53;5.03;;;2.65;;
28629;SDS011;15817;42.130;24.762;2023-05-13T03:27:21;8.50;;;2.90;;
28629;SDS011;15817;42.130;24.762;2023-05-13T03:29:47;7.90;;;2.70;;
28629;SDS011;15817;42.130;24.762;2023-05-13T03:32:13;10.52;;;2.25;;
28629;SDS011;15817;42.130;24.762;2023-05-13T03:34:39;11.88;;;2.80;;
28629;SDS011;15817;42.130;24.762;2023-05-13T03:37:05;10.85;;;3.38;;
28629;SDS011;15817;42.130;24.762;2023-05-13T03:39:32;7.13;;;2.40;;
28629;SDS011;15817;42.130;24.762;2023-05-13T03:41:57;5.05;;;2.42;;
28629;SDS011;15817;42.130;24.762;2023-05-13T03:44:23;5.25;;;2.47;;
28629;SDS011;15817;42.130;24.762;2023-05-13T03:46:49;4.55;;;2.60;;
28629;SDS011;15817;42.130;24.762;2023-05-13T03:49:17;4.90;;;2.85;;
28629;SDS011;15817;42.130;24.762;2023-05-13T03:51:43;10.07;;;2.90;;
28629;SDS011;15817;42.130;24.762;2023-05-13T03:54:09;5.55;;;2.95;;
28629;SDS011;15817;42.130;24.762;2023-05-13T03:56:35;9.05;;;3.10;;
28629;SDS011;15817;42.130;24.762;2023-05-13T03:59:01;5.15;;;2.70;;
28629;SDS011;15817;42.130;24.762;2023-05-13T04:01:26;9.40;;;2.90;;
28629;SDS011;15817;42.130;24.762;2023-05-13T04:03:52;5.05;;;3.05;;
28629;SDS011;15817;42.130;24.762;2023-05-13T04:06:18;4.53;;;3.50;;
28629;SDS011;15817;42.130;24.762;2023-05-13T04:08:45;6.93;;;3.72;;
28629;SDS011;15817;42.130;24.762;2023-05-13T04:11:14;10.02;;;3.70;;
28629;SDS011;15817;42.130;24.762;2023-05-13T04:13:42;6.60;;;3.55;;
28629;SDS011;15817;42.130;24.762;2023-05-13T04:16:10;8.00;;;3.70;;
28629;SDS011;15817;42.130;24.762;2023-05-13T04:18:40;5.78;;;3.65;;
28629;SDS011;15817;42.130;24.762;2023-05-13T04:21:06;4.47;;;2.60;;
28629;SDS011;15817;42.130;24.762;2023-05-13T04:23:32;5.78;;;3.40;;
28629;SDS011;15817;42.130;24.762;2023-05-13T04:25:58;5.47;;;3.80;;
28629;SDS011;15817;42.130;24.762;2023-05-13T04:28:24;4.85;;;3.97;;
28629;SDS011;15817;42.130;24.762;2023-05-13T04:30:51;6.90;;;3.58;;
28629;SDS011;15817;42.130;24.762;2023-05-13T04:33:17;6.85;;;2.70;;
28629;SDS011;15817;42.130;24.762;2023-05-13T04:35:44;5.82;;;2.80;;
28629;SDS011;15817;42.130;24.762;2023-05-13T04:38:11;5.78;;;2.85;;
28629;SDS011;15817;42.130;24.762;2023-05-13T04:40:37;6.65;;;3.38;;
28629;SDS011;15817;42.130;24.762;2023-05-13T04:43:07;4.90;;;2.90;;
28629;SDS011;15817;42.130;24.762;2023-05-13T04:45:40;6.30;;;3.25;;
28629;SDS011;15817;42.130;24.762;2023-05-13T04:48:08;7.10;;;2.67;;
28629;SDS011;15817;42.130;24.762;2023-05-13T04:50:34;7.80;;;3.40;;
28629;SDS011;15817;42.130;24.762;2023-05-13T04:53:00;6.97;;;3.50;;
28629;SDS011;15817;42.130;24.762;2023-05-13T04:55:26;5.30;;;3.03;;
28629;SDS011;15817;42.130;24.762;2023-05-13T04:57:51;4.97;;;3.42;;
28629;SDS011;15817;42.130;24.762;2023-05-13T05:00:19;10.90;;;4.13;;
28629;SDS011;15817;42.130;24.762;2023-05-13T05:02:47;3.47;;;3.03;;
28629;SDS011;15817;42.130;24.762;2023-05-13T05:05:13;5.78;;;3.38;;
28629;SDS011;15817;42.130;24.762;2023-05-13T05:07:40;6.25;;;3.22;;
28629;SDS011;15817;42.130;24.762;2023-05-13T05:10:07;6.75;;;3.42;;
28629;SDS011;15817;42.130;24.762;2023-05-13T05:12:36;6.70;;;3.72;;
28629;SDS011;15817;42.130;24.762;2023-05-13T05:15:03;7.85;;;3.40;;
28629;SDS011;15817;42.130;24.762;2023-05-13T05:17:31;4.93;;;4.13;;
28629;SDS011;15817;42.130;24.762;2023-05-13T05:20:03;10.77;;;3.95;;
28629;SDS011;15817;42.130;24.762;2023-05-13T05:22:29;10.13;;;3.60;;
28629;SDS011;15817;42.130;24.762;2023-05-13T05:25:01;9.55;;;4.00;;
28629;SDS011;15817;42.130;24.762;2023-05-13T05:27:28;5.47;;;3.92;;
28629;SDS011;15817;42.130;24.762;2023-05-13T05:29:57;6.95;;;3.63;;
28629;SDS011;15817;42.130;24.762;2023-05-13T05:32:23;8.57;;;3.22;;
28629;SDS011;15817;42.130;24.762;2023-05-13T05:34:56;8.40;;;5.22;;
28629;SDS011;15817;42.130;24.762;2023-05-13T05:37:27;5.72;;;3.17;;
28629;SDS011;15817;42.130;24.762;2023-05-13T05:39:54;5.28;;;3.20;;
28629;SDS011;15817;42.130;24.762;2023-05-13T05:42:20;7.82;;;3.42;;
28629;SDS011;15817;42.130;24.762;2023-05-13T05:44:46;8.45;;;3.60;;
28629;SDS011;15817;42.130;24.762;2023-05-13T05:47:15;13.63;;;3.72;;
28629;SDS011;15817;42.130;24.762;2023-05-13T05:53:03;10.52;;;3.67;;
28629;SDS011;15817;42.130;24.762;2023-05-13T05:55:42;6.72;;;3.60;;
28629;SDS011;15817;42.130;24.762;2023-05-13T05:58:08;5.65;;;3.88;;
28629;SDS011;15817;42.130;24.762;2023-05-13T06:00:36;9.02;;;3.83;;
28629;SDS011;15817;42.130;24.762;2023-05-13T06:03:02;7.50;;;3.90;;
28629;SDS011;15817;42.130;24.762;2023-05-13T06:05:28;8.43;;;3.63;;
28629;SDS011;15817;42.130;24.762;2023-05-13T06:07:55;8.55;;;3.70;;
28629;SDS011;15817;42.130;24.762;2023-05-13T06:10:21;5.97;;;3.17;;
28629;SDS011;15817;42.130;24.762;2023-05-13T06:12:47;5.32;;;2.90;;
28629;SDS011;15817;42.130;24.762;2023-05-13T06:15:12;7.68;;;2.95;;
28629;SDS011;15817;42.130;24.762;2023-05-13T06:17:38;7.13;;;3.17;;
28629;SDS011;15817;42.130;24.762;2023-05-13T06:20:05;4.40;;;2.80;;
28629;SDS011;15817;42.130;24.762;2023-05-13T06:22:31;8.20;;;2.97;;
28629;SDS011;15817;42.130;24.762;2023-05-13T06:24:57;5.00;;;3.22;;
28629;SDS011;15817;42.130;24.762;2023-05-13T06:27:23;4.40;;;3.20;;
28629;SDS011;15817;42.130;24.762;2023-05-13T06:29:49;9.40;;;3.13;;
28629;SDS011;15817;42.130;24.762;2023-05-13T06:32:17;5.10;;;3.72;;
28629;SDS011;15817;42.130;24.762;2023-05-13T06:34:46;6.22;;;3.08;;
28629;SDS011;15817;42.130;24.762;2023-05-13T06:37:12;8.73;;;3.35;;
28629;SDS011;15817;42.130;24.762;2023-05-13T06:39:39;7.13;;;2.83;;
28629;SDS011;15817;42.130;24.762;2023-05-13T06:42:05;7.85;;;3.25;;
28629;SDS011;15817;42.130;24.762;2023-05-13T06:44:37;8.27;;;3.22;;
28629;SDS011;15817;42.130;24.762;2023-05-13T06:47:04;9.80;;;3.38;;
28629;SDS011;15817;42.130;24.762;2023-05-13T06:49:33;4.72;;;3.40;;
28629;SDS011;15817;42.130;24.762;2023-05-13T06:51:59;6.60;;;3.25;;
28629;SDS011;15817;42.130;24.762;2023-05-13T06:54:27;5.75;;;3.10;;
28629;SDS011;15817;42.130;24.762;2023-05-13T06:56:53;5.93;;;2.95;;
28629;SDS011;15817;42.130;24.762;2023-05-13T06:59:20;4.93;;;3.33;;
28629;SDS011;15817;42.130;24.762;2023-05-13T07:01:47;5.35;;;3.42;;
28629;SDS011;15817;42.130;24.762;2023-05-13T07:04:12;5.97;;;3.28;;
28629;SDS011;15817;42.130;24.762;2023-05-13T07:06:38;5.25;;;3.60;;
28629;SDS011;15817;42.130;24.762;2023-05-13T07:09:04;6.38;;;3.20;;
28629;SDS011;15817;42.130;24.762;2023-05-13T07:11:30;4.88;;;3.00;;
28629;SDS011;15817;42.130;24.762;2023-05-13T07:13:56;8.32;;;3.28;;
28629;SDS011;15817;42.130;24.762;2023-05-13T07:16:22;5.25;;;3.60;;
28629;SDS011;15817;42.130;24.762;2023-05-13T07:18:48;5.35;;;3.33;;
28629;SDS011;15817;42.130;24.762;2023-05-13T07:21:24;7.68;;;3.60;;
28629;SDS011;15817;42.130;24.762;2023-05-13T07:23:49;7.65;;;3.50;;
28629;SDS011;15817;42.130;24.762;2023-05-13T07:26:15;6.65;;;3.28;;
28629;SDS011;15817;42.130;24.762;2023-05-13T07:28:41;6.63;;;3.22;;
28629;SDS011;15817;42.130;24.762;2023-05-13T07:31:10;7.45;;;3.13;;
28629;SDS011;15817;42.130;24.762;2023-05-13T07:33:39;8.50;;;3.47;;
28629;SDS011;15817;42.130;24.762;2023-05-13T07:43:27;6.63;;;3.47;;
28629;SDS011;15817;42.130;24.762;2023-05-13T07:45:55;7.18;;;3.53;;
28629;SDS011;15817;42.130;24.762;2023-05-13T07:48:21;6.47;;;3.38;;
28629;SDS011;15817;42.130;24.762;2023-05-13T07:50:51;5.93;;;3.28;;
28629;SDS011;15817;42.130;24.762;2023-05-13T07:53:18;7.70;;;3.35;;
28629;SDS011;15817;42.130;24.762;2023-05-13T07:55:44;7.43;;;3.35;;
28629;SDS011;15817;42.130;24.762;2023-05-13T07:58:09;7.32;;;3.15;;
28629;SDS011;15817;42.130;24.762;2023-05-13T08:00:38;5.70;;;3.20;;
28629;SDS011;15817;42.130;24.762;2023-05-13T08:03:04;6.63;;;3.33;;
28629;SDS011;15817;42.130;24.762;2023-05-13T08:05:32;6.30;;;3.10;;
28629;SDS011;15817;42.130;24.762;2023-05-13T08:07:58;7.72;;;3.58;;
28629;SDS011;15817;42.130;24.762;2023-05-13T08:10:27;4.35;;;2.42;;
28629;SDS011;15817;42.130;24.762;2023-05-13T08:12:52;4.68;;;2.38;;
28629;SDS011;15817;42.130;24.762;2023-05-13T08:15:24;12.90;;;3.17;;
28629;SDS011;15817;42.130;24.762;2023-05-13T08:18:13;5.90;;;2.70;;
28629;SDS011;15817;42.130;24.762;2023-05-13T08:20:39;4.15;;;2.55;;
28629;SDS011;15817;42.130;24.762;2023-05-13T08:23:14;3.83;;;2.00;;
28629;SDS011;15817;42.130;24.762;2023-05-13T08:25:43;2.95;;;2.10;;
28629;SDS011;15817;42.130;24.762;2023-05-13T08:28:09;5.60;;;2.13;;
28629;SDS011;15817;42.130;24.762;2023-05-13T08:30:35;4.63;;;2.00;;
28629;SDS011;15817;42.130;24.762;2023-05-13T08:33:01;3.28;;;2.10;;
28629;SDS011;15817;42.130;24.762;2023-05-13T08:35:27;4.32;;;1.90;;
28629;SDS011;15817;42.130;24.762;2023-05-13T08:37:52;5.07;;;1.80;;
28629;SDS011;15817;42.130;24.762;2023-05-13T08:40:18;2.92;;;1.70;;
28629;SDS011;15817;42.130;24.762;2023-05-13T08:42:45;6.15;;;1.70;;
28629;SDS011;15817;42.130;24.762;2023-05-13T08:45:15;2.65;;;1.70;;
28629;SDS011;15817;42.130;24.762;2023-05-13T08:50:22;2.55;;;1.60;;
28629;SDS011;15817;42.130;24.762;2023-05-13T08:52:52;8.80;;;2.30;;
28629;SDS011;15817;42.130;24.762;2023-05-13T08:55:24;2.92;;;1.60;;
28629;SDS011;15817;42.130;24.762;2023-05-13T08:57:51;2.45;;;1.60;;
28629;SDS011;15817;42.130;24.762;2023-05-13T09:00:17;5.88;;;1.58;;
28629;SDS011;15817;42.130;24.762;2023-05-13T09:02:43;4.00;;;1.60;;
28629;SDS011;15817;42.130;24.762;2023-05-13T09:05:12;2.75;;;1.75;;
28629;SDS011;15817;42.130;24.762;2023-05-13T09:07:39;3.97;;;1.73;;
28629;SDS011;15817;42.130;24.762;2023-05-13T09:10:05;2.75;;;1.60;;
28629;SDS011;15817;42.130;24.762;2023-05-13T09:12:48;5.93;;;1.70;;
28629;SDS011;15817;42.130;24.762;2023-05-13T09:15:22;3.55;;;1.70;;
28629;SDS011;15817;42.130;24.762;2023-05-13T09:17:50;2.72;;;1.75;;
28629;SDS011;15817;42.130;24.762;2023-05-13T09:20:21;3.97;;;1.63;;
28629;SDS011;15817;42.130;24.762;2023-05-13T09:22:50;2.75;;;1.80;;
28629;SDS011;15817;42.130;24.762;2023-05-13T09:25:19;2.70;;;2.03;;
28629;SDS011;15817;42.130;24.762;2023-05-13T09:27:53;3.95;;;2.03;;
28629;SDS011;15817;42.130;24.762;2023-05-13T09:30:32;6.30;;;1.77;;
28629;SDS011;15817;42.130;24.762;2023-05-13T09:33:05;5.13;;;2.40;;
28629;SDS011;15817;42.130;24.762;2023-05-13T09:35:32;4.10;;;2.10;;
28629;SDS011;15817;42.130;24.762;2023-05-13T09:38:10;3.20;;;1.92;;
28629;SDS011;15817;42.130;24.762;2023-05-13T09:40:52;4.18;;;1.67;;
28629;SDS011;15817;42.130;24.762;2023-05-13T09:43:30;3.28;;;1.80;;
28629;SDS011;15817;42.130;24.762;2023-05-13T09:46:00;5.45;;;1.60;;
28629;SDS011;15817;42.130;24.762;2023-05-13T09:48:28;2.35;;;1.70;;
28629;SDS011;15817;42.130;24.762;2023-05-13T09:50:58;3.28;;;2.00;;
28629;SDS011;15817;42.130;24.762;2023-05-13T09:53:25;3.10;;;1.75;;
28629;SDS011;15817;42.130;24.762;2023-05-13T09:55:53;4.20;;;2.00;;
28629;SDS011;15817;42.130;24.762;2023-05-13T09:58:20;3.08;;;1.85;;
28629;SDS011;15817;42.130;24.762;2023-05-13T10:00:54;4.63;;;1.83;;
28629;SDS011;15817;42.130;24.762;2023-05-13T10:03:24;6.50;;;1.95;;
28629;SDS011;15817;42.130;24.762;2023-05-13T10:08:48;2.13;;;1.50;;
28629;SDS011;15817;42.130;24.762;2023-05-13T10:11:19;5.68;;;1.85;;
28629;SDS011;15817;42.130;24.762;2023-05-13T10:13:48;5.47;;;1.85;;
28629;SDS011;15817;42.130;24.762;2023-05-13T10:16:19;3.53;;;1.73;;
28629;SDS011;15817;42.130;24.762;2023-05-13T10:18:57;6.13;;;2.08;;
28629;SDS011;15817;42.130;24.762;2023-05-13T10:21:26;3.40;;;1.73;;
28629;SDS011;15817;42.130;24.762;2023-05-13T10:23:52;3.92;;;1.75;;
28629;SDS011;15817;42.130;24.762;2023-05-13T10:26:25;2.97;;;1.58;;
28629;SDS011;15817;42.130;24.762;2023-05-13T10:28:52;1.92;;;1.40;;
28629;SDS011;15817;42.130;24.762;2023-05-13T10:31:19;3.40;;;1.50;;
28629;SDS011;15817;42.130;24.762;2023-05-13T10:33:47;5.15;;;1.50;;
28629;SDS011;15817;42.130;24.762;2023-05-13T10:36:29;3.17;;;1.40;;
28629;SDS011;15817;42.130;24.762;2023-05-13T10:44:50;3.03;;;1.40;;
28629;SDS011;15817;42.130;24.762;2023-05-13T10:47:19;8.63;;;1.80;;
28629;SDS011;15817;42.130;24.762;2023-05-13T10:49:49;5.18;;;1.55;;
28629;SDS011;15817;42.130;24.762;2023-05-13T10:52:17;4.45;;;2.10;;
28629;SDS011;15817;42.130;24.762;2023-05-13T10:54:44;4.50;;;1.92;;
28629;SDS011;15817;42.130;24.762;2023-05-13T10:57:35;2.97;;;1.60;;
28629;SDS011;15817;42.130;24.762;2023-05-13T11:00:11;3.92;;;1.60;;
28629;SDS011;15817;42.130;24.762;2023-05-13T11:02:41;5.03;;;1.67;;
28629;SDS011;15817;42.130;24.762;2023-05-13T11:05:07;4.18;;;1.67;;
28629;SDS011;15817;42.130;24.762;2023-05-13T11:07:36;1.42;;;1.33;;
28629;SDS011;15817;42.130;24.762;2023-05-13T11:10:26;4.78;;;1.70;;
28629;SDS011;15817;42.130;24.762;2023-05-13T11:15:44;5.63;;;1.50;;
28629;SDS011;15817;42.130;24.762;2023-05-13T11:18:28;4.97;;;1.80;;
28629;SDS011;15817;42.130;24.762;2023-05-13T11:21:05;2.35;;;1.77;;
28629;SDS011;15817;42.130;24.762;2023-05-13T11:23:32;3.33;;;1.40;;
28629;SDS011;15817;42.130;24.762;2023-05-13T11:26:14;2.33;;;1.30;;
28629;SDS011;15817;42.130;24.762;2023-05-13T11:28:54;2.47;;;1.70;;
28629;SDS011;15817;42.130;24.762;2023-05-13T11:31:24;2.25;;;1.70;;
28629;SDS011;15817;42.130;24.762;2023-05-13T11:34:07;2.95;;;1.52;;
28629;SDS011;15817;42.130;24.762;2023-05-13T11:36:39;3.30;;;1.60;;
28629;SDS011;15817;42.130;24.762;2023-05-13T11:39:08;5.50;;;1.65;;
28629;SDS011;15817;42.130;24.762;2023-05-13T11:41:36;2.55;;;1.45;;
28629;SDS011;15817;42.130;24.762;2023-05-13T11:44:04;3.28;;;1.77;;
28629;SDS011;15817;42.130;24.762;2023-05-13T11:46:31;4.13;;;1.65;;
28629;SDS011;15817;42.130;24.762;2023-05-13T11:48:57;8.57;;;2.15;;
28629;SDS011;15817;42.130;24.762;2023-05-13T11:51:22;1.75;;;1.58;;
28629;SDS011;15817;42.130;24.762;2023-05-13T11:53:50;2.28;;;1.38;;
28629;SDS011;15817;42.130;24.762;2023-05-13T11:56:20;2.95;;;1.40;;
28629;SDS011;15817;42.130;24.762;2023-05-13T11:58:54;1.90;;;1.38;;
28629;SDS011;15817;42.130;24.762;2023-05-13T12:01:23;3.63;;;1.52;;
28629;SDS011;15817;42.130;24.762;2023-05-13T12:03:49;1.83;;;1.40;;
28629;SDS011;15817;42.130;24.762;2023-05-13T12:06:25;2.80;;;1.70;;
28629;SDS011;15817;42.130;24.762;2023-05-13T12:08:50;1.92;;;1.50;;
28629;SDS011;15817;42.130;24.762;2023-05-13T12:11:28;3.25;;;1.50;;
28629;SDS011;15817;42.130;24.762;2023-05-13T12:14:09;3.72;;;1.65;;
28629;SDS011;15817;42.130;24.762;2023-05-13T12:16:40;2.83;;;1.60;;
28629;SDS011;15817;42.130;24.762;2023-05-13T12:19:06;4.47;;;1.77;;
28629;SDS011;15817;42.130;24.762;2023-05-13T12:21:32;4.25;;;1.60;;
28629;SDS011;15817;42.130;24.762;2023-05-13T12:24:17;3.95;;;1.48;;
28629;SDS011;15817;42.130;24.762;2023-05-13T12:26:49;3.08;;;1.60;;
28629;SDS011;15817;42.130;24.762;2023-05-13T12:29:15;3.75;;;1.27;;
28629;SDS011;15817;42.130;24.762;2023-05-13T12:32:02;2.85;;;1.67;;
28629;SDS011;15817;42.130;24.762;2023-05-13T12:34:33;2.80;;;1.60;;
28629;SDS011;15817;42.130;24.762;2023-05-13T12:37:10;3.97;;;1.50;;
28629;SDS011;15817;42.130;24.762;2023-05-13T12:39:37;4.97;;;1.67;;
28629;SDS011;15817;42.130;24.762;2023-05-13T12:42:14;3.65;;;1.42;;
28629;SDS011;15817;42.130;24.762;2023-05-13T12:44:42;3.83;;;1.55;;
28629;SDS011;15817;42.130;24.762;2023-05-13T12:47:09;2.80;;;1.60;;
28629;SDS011;15817;42.130;24.762;2023-05-13T12:49:50;6.32;;;1.70;;
28629;SDS011;15817;42.130;24.762;2023-05-13T12:52:18;4.07;;;1.70;;
28629;SDS011;15817;42.130;24.762;2023-05-13T12:54:48;4.45;;;1.80;;
28629;SDS011;15817;42.130;24.762;2023-05-13T12:57:27;4.22;;;1.55;;
28629;SDS011;15817;42.130;24.762;2023-05-13T12:59:53;2.83;;;1.60;;
28629;SDS011;15817;42.130;24.762;2023-05-13T13:02:32;3.15;;;1.50;;
28629;SDS011;15817;42.130;24.762;2023-05-13T13:05:21;5.15;;;2.38;;
28629;SDS011;15817;42.130;24.762;2023-05-13T13:07:49;2.50;;;1.80;;
28629;SDS011;15817;42.130;24.762;2023-05-13T13:10:38;4.13;;;1.58;;
28629;SDS011;15817;42.130;24.762;2023-05-13T13:13:30;4.35;;;1.63;;
28629;SDS011;15817;42.130;24.762;2023-05-13T13:16:11;2.13;;;1.55;;
28629;SDS011;15817;42.130;24.762;2023-05-13T13:18:50;2.47;;;1.60;;
28629;SDS011;15817;42.130;24.762;2023-05-13T13:21:19;4.10;;;1.58;;
28629;SDS011;15817;42.130;24.762;2023-05-13T13:23:44;4.40;;;1.63;;
28629;SDS011;15817;42.130;24.762;2023-05-13T13:26:36;6.70;;;1.55;;
28629;SDS011;15817;42.130;24.762;2023-05-13T13:29:13;2.85;;;1.60;;
28629;SDS011;15817;42.130;24.762;2023-05-13T13:31:41;6.28;;;1.73;;
28629;SDS011;15817;42.130;24.762;2023-05-13T13:34:06;2.85;;;1.80;;
28629;SDS011;15817;42.130;24.762;2023-05-13T13:36:34;3.63;;;1.80;;
28629;SDS011;15817;42.130;24.762;2023-05-13T13:39:00;5.53;;;1.70;;
28629;SDS011;15817;42.130;24.762;2023-05-13T13:41:28;4.18;;;1.70;;
28629;SDS011;15817;42.130;24.762;2023-05-13T13:43:54;4.60;;;2.00;;
28629;SDS011;15817;42.130;24.762;2023-05-13T13:46:19;3.33;;;1.75;;
28629;SDS011;15817;42.130;24.762;2023-05-13T13:48:45;4.57;;;2.00;;
28629;SDS011;15817;42.130;24.762;2023-05-13T13:51:11;5.55;;;1.70;;
28629;SDS011;15817;42.130;24.762;2023-05-13T13:53:37;2.30;;;1.60;;
28629;SDS011;15817;42.130;24.762;2023-05-13T13:56:05;3.17;;;1.40;;
28629;SDS011;15817;42.130;24.762;2023-05-13T13:58:31;1.65;;;1.40;;
28629;SDS011;15817;42.130;24.762;2023-05-13T14:00:57;3.67;;;1.70;;
28629;SDS011;15817;42.130;24.762;2023-05-13T14:03:23;3.42;;;2.08;;
28629;SDS011;15817;42.130;24.762;2023-05-13T14:05:49;2.58;;;1.80;;
28629;SDS011;15817;42.130;24.762;2023-05-13T14:08:16;2.83;;;1.83;;
28629;SDS011;15817;42.130;24.762;2023-05-13T14:10:41;4.65;;;2.15;;
28629;SDS011;15817;42.130;24.762;2023-05-13T14:13:07;4.15;;;2.10;;
28629;SDS011;15817;42.130;24.762;2023-05-13T14:15:33;4.40;;;2.35;;
28629;SDS011;15817;42.130;24.762;2023-05-13T14:18:03;2.75;;;1.90;;
28629;SDS011;15817;42.130;24.762;2023-05-13T14:20:32;2.65;;;1.73;;
28629;SDS011;15817;42.130;24.762;2023-05-13T14:23:00;3.60;;;1.75;;
28629;SDS011;15817;42.130;24.762;2023-05-13T14:25:28;1.95;;;1.48;;
28629;SDS011;15817;42.130;24.762;2023-05-13T14:27:54;5.28;;;1.83;;
28629;SDS011;15817;42.130;24.762;2023-05-13T14:30:20;4.20;;;2.05;;
28629;SDS011;15817;42.130;24.762;2023-05-13T14:32:52;2.25;;;1.30;;
28629;SDS011;15817;42.130;24.762;2023-05-13T14:35:23;7.47;;;1.63;;
28629;SDS011;15817;42.130;24.762;2023-05-13T14:37:51;1.50;;;1.40;;
28629;SDS011;15817;42.130;24.762;2023-05-13T14:40:24;4.32;;;1.50;;
28629;SDS011;15817;42.130;24.762;2023-05-13T14:42:57;2.47;;;1.70;;
28629;SDS011;15817;42.130;24.762;2023-05-13T14:45:25;6.43;;;1.70;;
28629;SDS011;15817;42.130;24.762;2023-05-13T14:47:55;4.50;;;1.73;;
28629;SDS011;15817;42.130;24.762;2023-05-13T14:50:21;5.80;;;2.20;;
28629;SDS011;15817;42.130;24.762;2023-05-13T14:52:56;3.05;;;1.98;;
28629;SDS011;15817;42.130;24.762;2023-05-13T14:55:25;4.05;;;1.85;;
28629;SDS011;15817;42.130;24.762;2023-05-13T14:57:56;5.38;;;2.08;;
28629;SDS011;15817;42.130;24.762;2023-05-13T15:00:22;3.05;;;1.50;;
28629;SDS011;15817;42.130;24.762;2023-05-13T15:02:48;3.58;;;2.05;;
28629;SDS011;15817;42.130;24.762;2023-05-13T15:05:17;2.50;;;1.60;;
28629;SDS011;15817;42.130;24.762;2023-05-13T15:07:43;3.65;;;1.75;;
28629;SDS011;15817;42.130;24.762;2023-05-13T15:10:09;2.53;;;1.65;;